createdAt,value
2023-01-01T00:01:04.104Z,57.65
2023-01-01T00:04:12.617Z,57.46
2023-01-01T00:07:17.092Z,56.70
2023-01-01T00:10:30.796Z,57.31
2023-01-01T00:13:36.913Z,57.27
2023-01-01T00:16:41.828Z,57.31
2023-01-01T00:19:46.934Z,57.11
2023-01-01T00:22:55.815Z,58.29
2023-01-01T00:26:00.398Z,58.38
2023-01-01T00:29:05.112Z,57.20
2023-01-01T00:32:11.641Z,57.61
2023-01-01T00:35:16.341Z,56.88
2023-01-01T00:38:20.614Z,56.73
2023-01-01T00:41:25.507Z,57.08
2023-01-01T00:44:29.542Z,57.60
2023-01-01T00:47:34.174Z,57.91
2023-01-01T00:50:41.360Z,56.51
2023-01-01T00:53:45.567Z,56.26
2023-01-01T00:56:49.683Z,56.33
2023-01-01T00:59:53.727Z,54.32
2023-01-01T01:02:57.859Z,57.00
2023-01-01T01:06:13.670Z,52.76
2023-01-01T01:09:17.991Z,53.62
2023-01-01T01:12:22.065Z,51.72
2023-01-01T01:15:26.063Z,52.74
2023-01-01T01:18:30.107Z,50.26
2023-01-01T01:21:35.998Z,52.50
2023-01-01T01:24:40.148Z,52.00
2023-01-01T01:27:44.341Z,51.10
2023-01-01T01:30:48.471Z,49.84
2023-01-01T01:33:52.926Z,50.85
2023-01-01T01:36:57.514Z,52.44
2023-01-01T01:40:01.712Z,53.80
2023-01-01T01:43:07.228Z,52.11
2023-01-01T01:46:27.787Z,52.83
2023-01-01T01:49:33.129Z,51.00
2023-01-01T01:52:38.463Z,50.75
2023-01-01T01:55:45.305Z,50.71
2023-01-01T01:58:49.365Z,51.65
2023-01-01T02:01:54.519Z,50.96
2023-01-01T02:04:58.720Z,51.23
2023-01-01T02:08:04.086Z,51.77
2023-01-01T02:11:08.160Z,48.58
2023-01-01T02:14:15.908Z,48.92
2023-01-01T02:17:36.971Z,49.06
2023-01-01T02:20:56.190Z,48.79
2023-01-01T02:24:15.305Z,50.08
2023-01-01T02:27:31.330Z,51.49
2023-01-01T02:30:36.568Z,50.51
2023-01-01T02:33:41.837Z,50.73
2023-01-01T02:36:50.548Z,49.89
2023-01-01T02:40:00.044Z,50.58
2023-01-01T02:43:05.129Z,52.97
2023-01-01T02:46:10.454Z,53.91
2023-01-01T02:49:14.685Z,52.89
2023-01-01T02:52:27.166Z,51.15
2023-01-01T02:55:40.644Z,53.20
2023-01-01T02:59:25.696Z,52.62
2023-01-01T03:02:35.899Z,53.68
2023-01-01T03:06:00.088Z,55.81
2023-01-01T03:09:13.869Z,57.28
2023-01-01T03:12:40.481Z,57.38
2023-01-01T03:16:04.700Z,56.17
2023-01-01T03:19:13.095Z,55.08
2023-01-01T03:22:18.490Z,55.81
2023-01-01T03:29:01.138Z,62.88
2023-01-01T03:32:06.193Z,67.11
2023-01-01T03:35:10.811Z,62.29
2023-01-01T03:38:18.864Z,62.49
2023-01-01T03:41:29.169Z,61.11
2023-01-01T03:52:22.273Z,61.13
2023-01-01T03:59:16.792Z,59.94
2023-01-01T04:02:24.495Z,59.14
2023-01-01T04:05:40.926Z,58.73
2023-01-01T04:08:46.220Z,57.54
2023-01-01T04:12:05.141Z,58.95
2023-01-01T04:15:22.811Z,58.86
2023-01-01T04:18:26.569Z,61.52
2023-01-01T04:21:30.073Z,61.32
2023-01-01T04:24:36.833Z,59.92
2023-01-01T04:27:40.812Z,62.70
2023-01-01T04:30:47.409Z,64.16
2023-01-01T04:34:30.611Z,65.41
2023-01-01T04:37:30.239Z,64.08
2023-01-01T04:40:39.783Z,64.17
2023-01-01T04:48:12.154Z,60.68
2023-01-01T04:51:26.659Z,58.98
2023-01-01T04:55:59.009Z,58.35
2023-01-01T04:58:57.979Z,56.27
2023-01-01T05:02:06.937Z,56.29
2023-01-01T05:05:10.639Z,57.48
2023-01-01T05:08:14.253Z,58.28
2023-01-01T05:11:26.727Z,56.84
2023-01-01T05:14:50.023Z,56.20
2023-01-01T05:18:22.555Z,56.28
2023-01-01T05:21:52.458Z,51.57
2023-01-01T05:25:18.078Z,50.60
2023-01-01T05:28:34.371Z,49.29
2023-01-01T05:31:45.553Z,50.51
2023-01-01T05:34:57.966Z,48.96
2023-01-01T05:38:44.971Z,46.21
2023-01-01T05:42:41.705Z,47.55
2023-01-01T05:46:51.688Z,47.31
2023-01-01T05:50:18.993Z,48.49
2023-01-01T05:53:34.542Z,46.83
2023-01-01T05:57:01.671Z,48.97
2023-01-01T06:04:56.697Z,49.20
2023-01-01T06:09:16.786Z,48.35
2023-01-01T06:12:20.038Z,48.49
2023-01-01T06:16:06.065Z,47.24
2023-01-01T06:19:50.665Z,46.78
2023-01-01T06:23:18.789Z,47.27
2023-01-01T06:26:27.723Z,44.63
2023-01-01T06:29:50.787Z,44.69
2023-01-01T06:33:31.569Z,46.43
2023-01-01T06:36:50.084Z,48.31
2023-01-01T06:40:10.813Z,44.90
2023-01-01T06:47:28.841Z,46.75
2023-01-01T06:50:32.424Z,45.38
2023-01-01T06:53:37.942Z,45.74
2023-01-01T06:56:41.554Z,45.57
2023-01-01T06:59:45.111Z,44.68
2023-01-01T07:02:49.418Z,45.33
2023-01-01T07:05:53.265Z,44.25
2023-01-01T07:08:56.863Z,44.65
2023-01-01T07:12:00.737Z,46.23
2023-01-01T07:15:04.373Z,45.22
2023-01-01T07:18:07.985Z,46.77
2023-01-01T07:21:28.399Z,44.27
2023-01-01T07:24:33.283Z,45.56
2023-01-01T07:27:37.013Z,46.73
2023-01-01T07:30:40.543Z,45.60
2023-01-01T07:33:45.009Z,45.67
2023-01-01T07:36:48.780Z,46.30
2023-01-01T07:39:52.265Z,46.31
2023-01-01T07:42:55.814Z,46.21
2023-01-01T07:45:59.913Z,46.87
2023-01-01T07:49:04.794Z,46.18
2023-01-01T07:52:08.422Z,46.63
2023-01-01T07:55:15.939Z,47.26
2023-01-01T07:58:19.506Z,47.78
2023-01-01T08:01:23.154Z,47.54
2023-01-01T08:04:30.222Z,48.07
2023-01-01T08:07:33.749Z,48.26
2023-01-01T08:10:38.713Z,47.79
2023-01-01T08:13:42.792Z,48.73
2023-01-01T08:16:46.397Z,49.16
2023-01-01T08:19:51.149Z,48.73
2023-01-01T08:22:55.405Z,49.01
2023-01-01T08:26:03.506Z,49.03
2023-01-01T08:29:07.839Z,48.56
2023-01-01T08:32:13.391Z,49.87
2023-01-01T08:35:17.022Z,49.72
2023-01-01T08:38:20.699Z,49.68
2023-01-01T08:41:24.274Z,50.04
2023-01-01T08:44:28.464Z,49.78
2023-01-01T08:47:32.037Z,49.86
2023-01-01T08:50:35.709Z,49.56
2023-01-01T08:53:41.153Z,50.49
2023-01-01T08:56:46.470Z,50.96
2023-01-01T08:59:50.035Z,50.45
2023-01-01T09:02:55.283Z,50.94
2023-01-01T09:05:59.052Z,51.31
2023-01-01T09:09:02.633Z,50.88
2023-01-01T09:12:09.097Z,50.73
2023-01-01T09:15:17.057Z,50.91
2023-01-01T09:18:20.647Z,50.76
2023-01-01T09:21:24.187Z,51.08
2023-01-01T09:24:28.551Z,51.28
2023-01-01T09:27:32.249Z,50.77
2023-01-01T09:30:36.415Z,51.12
2023-01-01T09:33:41.514Z,51.30
2023-01-01T09:36:45.701Z,51.33
2023-01-01T09:39:49.433Z,50.99
2023-01-01T09:43:13.296Z,51.56
2023-01-01T09:46:18.036Z,51.02
2023-01-01T09:49:33.745Z,51.24
2023-01-01T09:52:57.846Z,51.22
2023-01-01T09:56:02.941Z,51.87
2023-01-01T09:59:06.458Z,51.22
2023-01-01T10:02:19.364Z,50.34
2023-01-01T10:05:42.959Z,50.65
2023-01-01T10:08:49.554Z,50.34
2023-01-01T10:11:55.972Z,51.11
2023-01-01T10:18:35.553Z,50.97
2023-01-01T10:21:46.728Z,49.95
2023-01-01T10:24:53.714Z,50.68
2023-01-01T10:28:01.629Z,49.64
2023-01-01T10:31:17.574Z,49.27
2023-01-01T10:34:29.196Z,49.44
2023-01-01T10:37:37.158Z,50.17
2023-01-01T10:40:40.804Z,49.02
2023-01-01T10:43:45.647Z,48.64
2023-01-01T10:46:51.686Z,48.93
2023-01-01T10:49:57.185Z,47.37
2023-01-01T10:53:01.122Z,48.92
2023-01-01T10:56:09.646Z,48.37
2023-01-01T10:59:31.895Z,48.49
2023-01-01T11:02:38.074Z,48.65
2023-01-01T11:05:54.683Z,49.00
2023-01-01T11:09:01.497Z,48.26
2023-01-01T11:12:19.092Z,48.62
2023-01-01T11:15:33.988Z,47.86
2023-01-01T11:18:38.925Z,48.61
2023-01-01T11:21:48.073Z,48.51
2023-01-01T11:25:02.762Z,47.93
2023-01-01T11:28:25.037Z,48.66
2023-01-01T11:31:36.162Z,48.59
2023-01-01T11:34:41.296Z,47.71
2023-01-01T11:37:46.011Z,48.84
2023-01-01T11:40:54.327Z,48.53
2023-01-01T11:43:58.009Z,48.13
2023-01-01T11:47:02.055Z,49.55
2023-01-01T11:50:14.981Z,48.37
2023-01-01T11:53:19.130Z,48.20
2023-01-01T11:56:23.923Z,47.53
2023-01-01T11:59:31.385Z,47.96
2023-01-01T12:02:37.610Z,48.81
2023-01-01T12:05:59.620Z,48.09
2023-01-01T12:09:17.734Z,48.13
2023-01-01T12:12:22.140Z,48.26
2023-01-01T12:15:28.261Z,48.96
2023-01-01T12:18:41.005Z,48.45
2023-01-01T12:21:52.374Z,48.41
2023-01-01T12:24:59.169Z,48.78
2023-01-01T12:28:03.038Z,48.87
2023-01-01T12:31:12.813Z,48.87
2023-01-01T12:34:16.653Z,49.03
2023-01-01T12:37:47.314Z,49.33
2023-01-01T12:41:03.483Z,48.56
2023-01-01T12:44:07.264Z,48.95
2023-01-01T12:47:29.227Z,47.87
2023-01-01T12:50:35.833Z,49.59
2023-01-01T12:53:47.684Z,48.16
2023-01-01T12:56:58.533Z,48.92
2023-01-01T13:00:03.164Z,48.51
2023-01-01T13:03:18.331Z,47.57
2023-01-01T13:06:43.494Z,47.55
2023-01-01T13:09:49.447Z,47.20
2023-01-01T13:12:54.834Z,47.46
2023-01-01T13:15:58.761Z,48.26
2023-01-01T13:19:02.993Z,47.64
2023-01-01T13:22:25.343Z,46.70
2023-01-01T13:25:29.434Z,47.87
2023-01-01T13:28:33.218Z,47.54
2023-01-01T13:31:39.819Z,47.16
2023-01-01T13:35:03.486Z,47.23
2023-01-01T13:38:27.004Z,46.79
2023-01-01T13:41:46.991Z,47.52
2023-01-01T13:44:50.629Z,48.00
2023-01-01T13:48:12.493Z,48.22
2023-01-01T13:51:40.027Z,47.53
2023-01-01T13:55:16.720Z,49.08
2023-01-01T13:58:40.327Z,48.35
2023-01-01T14:01:46.725Z,48.52
2023-01-01T14:04:50.361Z,48.91
2023-01-01T14:07:54.983Z,48.31
2023-01-01T14:11:01.268Z,48.75
2023-01-01T14:14:24.910Z,49.08
2023-01-01T14:17:28.451Z,48.22
2023-01-01T14:20:42.104Z,48.83
2023-01-01T14:23:47.624Z,49.29
2023-01-01T14:26:52.462Z,48.26
2023-01-01T14:29:56.296Z,48.52
2023-01-01T14:33:01.096Z,47.83
2023-01-01T14:36:06.380Z,48.63
2023-01-01T14:39:27.221Z,48.88
2023-01-01T14:42:33.027Z,47.38
2023-01-01T14:45:37.907Z,48.18
2023-01-01T14:48:44.362Z,48.54
2023-01-01T14:51:51.936Z,47.88
2023-01-01T14:54:58.514Z,49.08
2023-01-01T14:58:03.313Z,49.06
2023-01-01T15:01:23.541Z,49.94
2023-01-01T15:04:27.515Z,49.47
2023-01-01T15:07:32.479Z,49.35
2023-01-01T15:10:37.080Z,48.13
2023-01-01T15:13:40.796Z,48.29
2023-01-01T15:16:44.346Z,49.67
2023-01-01T15:19:49.074Z,48.40
2023-01-01T15:22:53.529Z,47.68
2023-01-01T15:25:57.764Z,47.16
2023-01-01T15:29:02.424Z,47.95
2023-01-01T15:32:10.250Z,48.08
2023-01-01T15:35:31.196Z,48.68
2023-01-01T15:38:37.807Z,47.69
2023-01-01T15:41:43.784Z,48.61
2023-01-01T15:44:47.490Z,49.00
2023-01-01T15:47:51.956Z,49.49
2023-01-01T15:50:55.611Z,50.01
2023-01-01T15:54:00.672Z,50.25
2023-01-01T15:57:04.767Z,49.82
2023-01-01T16:00:08.708Z,50.57
2023-01-01T16:03:21.205Z,50.52
2023-01-01T16:06:24.783Z,50.59
2023-01-01T16:09:28.359Z,49.74
2023-01-01T16:12:31.879Z,48.97
2023-01-01T16:15:36.069Z,49.72
2023-01-01T16:18:39.754Z,49.28
2023-01-01T16:21:43.370Z,49.15
2023-01-01T16:24:46.895Z,50.79
2023-01-01T16:27:51.424Z,50.06
2023-01-01T16:30:56.167Z,51.17
2023-01-01T16:34:00.327Z,51.14
2023-01-01T16:37:03.846Z,51.16
2023-01-01T16:40:08.308Z,51.50
2023-01-01T16:43:18.884Z,51.39
2023-01-01T16:46:22.622Z,50.91
2023-01-01T16:49:26.171Z,50.80
2023-01-01T16:52:33.750Z,49.78
2023-01-01T16:55:37.727Z,50.76
2023-01-01T16:58:51.544Z,50.14
2023-01-01T17:01:58.676Z,49.81
2023-01-01T17:05:02.184Z,49.22
2023-01-01T17:08:06.203Z,49.99
2023-01-01T17:11:14.516Z,49.95
2023-01-01T17:14:18.210Z,50.55
2023-01-01T17:17:21.866Z,50.32
2023-01-01T17:20:26.063Z,50.45
2023-01-01T17:23:29.970Z,50.45
2023-01-01T17:26:33.522Z,50.56
2023-01-01T17:29:37.591Z,50.99
2023-01-01T17:32:41.790Z,50.99
2023-01-01T17:35:45.335Z,50.92
2023-01-01T17:38:48.828Z,50.34
2023-01-01T17:41:52.397Z,50.15
2023-01-01T17:44:55.832Z,50.97
2023-01-01T17:47:59.530Z,51.99
2023-01-01T17:51:03.382Z,51.32
2023-01-01T17:54:10.964Z,50.31
2023-01-01T17:57:14.698Z,49.89
2023-01-01T18:00:18.738Z,49.14
2023-01-01T18:03:23.460Z,48.61
2023-01-01T18:06:27.296Z,50.28
2023-01-01T18:09:30.708Z,49.14
2023-01-01T18:12:34.545Z,50.53
2023-01-01T18:15:38.492Z,50.87
2023-01-01T18:18:42.587Z,51.24
2023-01-01T18:21:46.087Z,51.32
2023-01-01T18:24:49.622Z,51.41
2023-01-01T18:27:57.515Z,50.78
2023-01-01T18:31:19.870Z,50.30
2023-01-01T18:34:24.288Z,50.87
2023-01-01T18:37:27.900Z,50.97
2023-01-01T18:40:34.897Z,52.21
2023-01-01T18:43:38.698Z,53.19
2023-01-01T18:46:42.218Z,51.54
2023-01-01T18:49:50.639Z,51.41
2023-01-01T18:53:01.614Z,50.50
2023-01-01T18:56:16.228Z,49.79
2023-01-01T18:59:24.010Z,49.62
2023-01-01T19:02:34.277Z,49.75
2023-01-01T19:05:38.101Z,49.88
2023-01-01T19:08:41.605Z,50.08
2023-01-01T19:11:45.168Z,52.09
2023-01-01T19:14:49.214Z,54.90
2023-01-01T19:17:55.583Z,54.49
2023-01-01T19:21:01.827Z,53.49
2023-01-01T19:24:11.939Z,53.76
2023-01-01T19:27:19.220Z,53.73
2023-01-01T19:30:24.015Z,54.31
2023-01-01T19:33:29.366Z,54.29
2023-01-01T19:36:33.665Z,54.37
2023-01-01T19:39:37.413Z,54.81
2023-01-01T19:42:41.064Z,55.14
2023-01-01T19:45:44.649Z,55.30
2023-01-01T19:48:49.987Z,54.65
2023-01-01T19:51:53.796Z,55.02
2023-01-01T19:54:57.452Z,54.96
2023-01-01T19:58:01.257Z,54.58
2023-01-01T20:01:04.761Z,54.71
2023-01-01T20:04:09.049Z,54.93
2023-01-01T20:07:12.799Z,54.61
2023-01-01T20:10:16.425Z,54.57
2023-01-01T20:13:19.992Z,55.22
2023-01-01T20:16:23.681Z,55.03
2023-01-01T20:19:27.154Z,54.51
2023-01-01T20:22:31.065Z,54.16
2023-01-01T20:25:34.564Z,54.37
2023-01-01T20:28:56.668Z,54.43
2023-01-01T20:32:00.462Z,54.80
2023-01-01T20:35:04.129Z,53.91
2023-01-01T20:38:08.271Z,53.87
2023-01-01T20:41:27.122Z,53.49
2023-01-01T20:44:31.214Z,54.11
2023-01-01T20:47:35.464Z,53.88
2023-01-01T20:50:38.912Z,53.29
2023-01-01T20:53:43.536Z,53.18
2023-01-01T20:56:47.313Z,53.50
2023-01-01T20:59:51.051Z,53.15
2023-01-01T21:02:54.913Z,53.48
2023-01-01T21:05:58.800Z,53.48
2023-01-01T21:09:05.830Z,53.52
2023-01-01T21:12:10.324Z,53.66
2023-01-01T21:15:17.380Z,53.60
2023-01-01T21:18:21.036Z,54.09
2023-01-01T21:21:34.041Z,53.05
2023-01-01T21:24:38.331Z,52.87
2023-01-01T21:27:41.776Z,52.61
2023-01-01T21:30:52.727Z,52.29
2023-01-01T21:33:56.373Z,53.00
2023-01-01T21:37:02.472Z,52.25
2023-01-01T21:40:20.537Z,52.91
2023-01-01T21:43:27.833Z,53.52
2023-01-01T21:46:31.254Z,53.60
2023-01-01T21:49:37.162Z,53.38
2023-01-01T21:52:47.250Z,53.47
2023-01-01T21:55:55.276Z,53.43
2023-01-01T21:59:28.240Z,53.52
2023-01-01T22:02:33.797Z,53.63
2023-01-01T22:05:38.367Z,53.52
2023-01-01T22:08:44.095Z,54.35
2023-01-01T22:11:48.166Z,53.79
2023-01-01T22:14:53.282Z,54.21
2023-01-01T22:18:02.942Z,53.46
2023-01-01T22:21:06.545Z,53.06
2023-01-01T22:24:28.656Z,53.03
2023-01-01T22:27:38.256Z,53.02
2023-01-01T22:30:43.449Z,52.66
2023-01-01T22:33:48.091Z,52.42
2023-01-01T22:36:51.588Z,52.71
2023-01-01T22:39:55.144Z,53.49
2023-01-01T22:43:02.464Z,53.21
2023-01-01T22:46:13.197Z,52.90
2023-01-01T22:49:22.924Z,53.32
2023-01-01T22:52:26.647Z,52.98
2023-01-01T22:55:30.495Z,52.78
2023-01-01T22:58:34.100Z,52.75
2023-01-01T23:01:40.342Z,52.28
2023-01-01T23:04:44.219Z,52.57
2023-01-01T23:07:47.941Z,52.20
2023-01-01T23:10:51.761Z,52.11
2023-01-01T23:14:14.037Z,52.29
2023-01-01T23:17:17.574Z,51.30
2023-01-01T23:20:21.365Z,51.78
2023-01-01T23:23:25.628Z,51.38
2023-01-01T23:26:29.348Z,51.96
2023-01-01T23:29:33.853Z,51.95
2023-01-01T23:32:37.411Z,51.74
2023-01-01T23:35:43.939Z,51.43
2023-01-01T23:38:47.616Z,51.28
2023-01-01T23:41:52.321Z,51.72
2023-01-01T23:44:56.340Z,52.15
2023-01-01T23:47:59.896Z,51.31
2023-01-01T23:51:03.807Z,52.25
2023-01-01T23:54:07.644Z,50.09
2023-01-01T23:57:11.326Z,49.96
